createdAt,value
2019-01-19T00:01:30.501Z,58.43
2019-01-19T00:06:38.137Z,73.18
2019-01-19T00:11:45.836Z,59.45
2019-01-19T00:16:53.484Z,53.25
2019-01-19T00:22:01.185Z,49.27
2019-01-19T00:27:08.830Z,56.34
2019-01-19T00:32:16.489Z,51.18
2019-01-19T00:37:24.128Z,49.72
2019-01-19T00:42:31.783Z,69.87
2019-01-19T00:47:39.410Z,50.83
2019-01-19T00:52:47.068Z,72.39
2019-01-19T00:57:54.700Z,48.81
2019-01-19T01:03:02.383Z,59.73
2019-01-19T01:08:10.006Z,41.84
2019-01-19T01:13:17.656Z,52.11
2019-01-19T01:18:25.353Z,36.80
2019-01-19T01:23:32.976Z,36.46
2019-01-19T01:28:40.642Z,37.08
2019-01-19T01:33:48.267Z,41.70
2019-01-19T01:38:55.956Z,31.19
2019-01-19T01:44:03.657Z,37.64
2019-01-19T01:49:11.361Z,29.22
2019-01-19T01:54:18.997Z,29.18
2019-01-19T01:59:26.655Z,35.30
2019-01-19T02:04:34.301Z,26.68
2019-01-19T02:09:41.954Z,26.14
2019-01-19T02:14:49.640Z,29.96
2019-01-19T02:19:57.257Z,25.03
2019-01-19T02:25:04.966Z,25.27
2019-01-19T02:30:12.589Z,31.87
2019-01-19T02:35:20.232Z,26.73
2019-01-19T02:40:27.877Z,28.40
2019-01-19T02:45:35.529Z,22.62
2019-01-19T02:50:43.209Z,23.50
2019-01-19T02:55:50.918Z,22.99
2019-01-19T03:00:58.532Z,21.92
2019-01-19T03:06:06.186Z,26.49
2019-01-19T03:11:13.827Z,21.68
2019-01-19T03:16:21.544Z,25.44
2019-01-19T03:21:29.203Z,24.16
2019-01-19T03:26:36.937Z,19.55
2019-01-19T03:31:44.562Z,20.74
2019-01-19T03:36:52.276Z,20.56
2019-01-19T03:41:59.892Z,21.01
2019-01-19T03:47:07.528Z,20.56
2019-01-19T03:52:15.259Z,23.83
2019-01-19T03:57:22.895Z,22.55
2019-01-19T04:02:30.600Z,18.22
2019-01-19T04:07:38.271Z,19.70
2019-01-19T04:12:45.930Z,18.05
2019-01-19T04:17:53.528Z,17.39
2019-01-19T04:23:01.256Z,19.76
2019-01-19T04:28:08.902Z,15.43
2019-01-19T04:33:16.621Z,18.92
2019-01-19T04:38:24.288Z,16.26
2019-01-19T04:43:31.943Z,16.26
2019-01-19T04:48:39.615Z,16.84
2019-01-19T04:53:47.240Z,17.04
2019-01-19T04:58:54.945Z,15.51
2019-01-19T05:04:02.576Z,14.46
2019-01-19T05:09:10.291Z,15.88
2019-01-19T05:14:17.903Z,14.73
2019-01-19T05:19:25.553Z,15.56
2019-01-19T05:24:33.185Z,16.21
2019-01-19T05:29:40.935Z,16.14
2019-01-19T05:34:48.604Z,16.88
2019-01-19T05:39:56.261Z,14.33
2019-01-19T05:45:03.898Z,17.49
2019-01-19T05:50:11.550Z,20.80
2019-01-19T05:55:19.189Z,14.67
2019-01-19T06:00:26.898Z,16.64
2019-01-19T06:05:34.568Z,14.75
2019-01-19T06:10:42.284Z,14.27
2019-01-19T06:15:49.937Z,15.81
2019-01-19T06:20:57.609Z,15.61
2019-01-19T06:26:05.245Z,14.59
2019-01-19T06:31:12.914Z,16.16
2019-01-19T06:36:20.566Z,18.18
2019-01-19T06:41:28.201Z,16.11
2019-01-19T06:46:35.833Z,14.37
2019-01-19T06:51:43.490Z,15.58
2019-01-19T06:56:51.165Z,15.20
2019-01-19T07:01:58.831Z,15.65
2019-01-19T07:07:06.453Z,16.02
2019-01-19T07:12:14.116Z,14.99
2019-01-19T07:17:23.016Z,19.52
2019-01-19T07:22:30.801Z,16.52
2019-01-19T07:27:38.418Z,15.78
2019-01-19T07:32:46.069Z,16.65
2019-01-19T07:37:54.067Z,17.19
2019-01-19T07:43:01.779Z,16.31
2019-01-19T07:48:09.401Z,15.52
2019-01-19T07:53:17.058Z,16.94
2019-01-19T07:58:24.692Z,19.17
2019-01-19T08:03:32.341Z,20.73
2019-01-19T08:08:39.974Z,16.65
2019-01-19T08:13:47.685Z,17.12
2019-01-19T08:18:55.314Z,17.95
2019-01-19T08:24:03.025Z,20.12
2019-01-19T08:29:10.664Z,18.46
2019-01-19T08:34:18.601Z,20.14
2019-01-19T08:39:26.266Z,18.30
2019-01-19T08:44:33.913Z,18.54
2019-01-19T08:49:41.553Z,18.58
2019-01-19T08:54:49.211Z,19.49
2019-01-19T08:59:56.868Z,18.64
2019-01-19T09:05:04.583Z,21.07
2019-01-19T09:10:12.245Z,22.22
2019-01-19T09:15:19.971Z,19.96
2019-01-19T09:20:27.621Z,20.20
2019-01-19T09:25:35.356Z,22.98
2019-01-19T09:30:42.988Z,20.55
2019-01-19T09:35:50.717Z,20.66
2019-01-19T09:40:58.350Z,20.90
2019-01-19T09:46:06.002Z,21.16
2019-01-19T09:51:13.641Z,22.89
2019-01-19T09:56:21.345Z,20.69
2019-01-19T10:01:28.982Z,26.43
2019-01-19T10:06:36.672Z,19.81
2019-01-19T10:11:44.294Z,22.38
2019-01-19T10:16:52.133Z,19.26
2019-01-19T10:21:59.748Z,19.58
2019-01-19T10:27:07.461Z,20.12
2019-01-19T10:32:15.113Z,20.11
2019-01-19T10:37:22.796Z,20.97
2019-01-19T10:42:30.469Z,19.53
2019-01-19T10:47:38.115Z,20.72
2019-01-19T10:52:45.773Z,18.16
2019-01-19T10:57:53.504Z,18.22
2019-01-19T11:03:01.192Z,20.10
2019-01-19T11:08:08.845Z,18.78
2019-01-19T11:13:16.516Z,19.56
2019-01-19T11:18:24.186Z,18.52
2019-01-19T11:23:39.591Z,16.97
2019-01-19T11:28:39.978Z,17.02
2019-01-19T11:33:47.623Z,16.04
2019-01-19T11:38:55.311Z,17.52
2019-01-19T11:44:02.958Z,15.18
2019-01-19T11:49:10.630Z,15.58
2019-01-19T11:54:18.276Z,13.89
2019-01-19T11:59:25.942Z,14.65
2019-01-19T12:04:33.561Z,12.86
2019-01-19T12:09:41.297Z,13.52
2019-01-19T12:14:48.901Z,12.73
2019-01-19T12:19:56.590Z,11.79
2019-01-19T12:25:04.249Z,10.77
2019-01-19T12:30:11.936Z,11.87
2019-01-19T12:35:19.577Z,11.18
2019-01-19T12:40:27.257Z,12.80
2019-01-19T12:45:34.890Z,11.39
2019-01-19T12:50:42.574Z,12.31
2019-01-19T12:55:50.194Z,11.61
2019-01-19T13:00:57.871Z,10.52
2019-01-19T13:06:05.490Z,10.77
2019-01-19T13:11:13.250Z,10.64
2019-01-19T13:16:20.971Z,10.44
2019-01-19T13:21:28.681Z,9.05
2019-01-19T13:26:36.301Z,8.95
2019-01-19T13:31:44.020Z,9.57
2019-01-19T13:36:51.660Z,9.92
2019-01-19T13:41:59.404Z,7.91
2019-01-19T13:47:07.051Z,8.00
2019-01-19T13:52:14.820Z,7.55
2019-01-19T13:57:22.462Z,8.15
2019-01-19T14:02:30.168Z,7.43
2019-01-19T14:07:37.777Z,7.01
2019-01-19T14:12:45.474Z,7.91
2019-01-19T14:17:53.101Z,6.65
2019-01-19T14:23:00.752Z,8.08
2019-01-19T14:28:08.382Z,7.93
2019-01-19T14:33:16.127Z,7.75
2019-01-19T14:38:23.777Z,6.75
2019-01-19T14:43:31.518Z,7.03
2019-01-19T14:48:39.250Z,7.37
2019-01-19T14:53:46.921Z,7.72
2019-01-19T14:58:54.553Z,7.74
2019-01-19T15:04:02.217Z,8.41
2019-01-19T15:09:09.839Z,6.71
2019-01-19T15:14:17.549Z,7.36
2019-01-19T15:19:25.152Z,8.39
2019-01-19T15:24:32.848Z,7.63
2019-01-19T15:29:40.484Z,8.52
2019-01-19T15:34:48.185Z,9.42
2019-01-19T15:39:55.849Z,8.54
2019-01-19T15:45:03.515Z,8.88
2019-01-19T15:50:11.160Z,7.58
2019-01-19T15:55:18.877Z,8.68
2019-01-19T16:00:26.494Z,9.54
2019-01-19T16:05:34.216Z,7.51
2019-01-19T16:10:41.889Z,8.64
2019-01-19T16:15:49.601Z,8.28
2019-01-19T16:20:57.232Z,8.25
2019-01-19T16:26:04.990Z,8.18
2019-01-19T16:31:12.616Z,8.76
2019-01-19T16:36:20.349Z,8.79
2019-01-19T16:41:28.020Z,9.20
2019-01-19T16:46:35.670Z,9.47
2019-01-19T16:51:43.349Z,8.76
2019-01-19T16:56:50.965Z,8.86
2019-01-19T17:01:58.684Z,9.14
2019-01-19T17:07:06.327Z,8.83
2019-01-19T17:12:13.969Z,9.21
2019-01-19T17:17:21.588Z,7.81
2019-01-19T17:22:29.269Z,9.09
2019-01-19T17:27:36.869Z,11.32
2019-01-19T17:32:44.529Z,9.90
2019-01-19T17:37:53.071Z,10.12
2019-01-19T17:42:59.380Z,9.17
2019-01-19T17:48:07.085Z,10.71
2019-01-19T17:53:14.724Z,10.06
2019-01-19T17:58:22.381Z,9.29
2019-01-19T18:03:30.105Z,9.27
2019-01-19T18:08:52.407Z,9.05
2019-01-19T18:14:05.242Z,8.52
2019-01-19T18:18:42.027Z,8.82
2019-01-19T18:23:49.761Z,8.91
2019-01-19T18:30:32.518Z,8.88
2019-01-19T18:34:00.545Z,9.23
2019-01-19T18:39:35.626Z,10.77
2019-01-19T18:44:22.848Z,9.89
2019-01-19T18:49:33.679Z,8.00
2019-01-19T18:54:29.759Z,9.37
2019-01-19T18:59:37.092Z,7.65
2019-01-19T19:04:46.247Z,8.35
2019-01-19T19:09:52.009Z,10.17
2019-01-19T19:14:59.930Z,8.11
2019-01-19T19:20:40.418Z,8.06
2019-01-19T19:25:05.128Z,8.80
2019-01-19T19:30:11.205Z,12.96
2019-01-19T19:36:22.312Z,8.90
2019-01-19T19:40:55.103Z,8.18
2019-01-19T19:45:36.294Z,7.60
2019-01-19T19:50:13.001Z,8.02
2019-01-19T19:55:20.758Z,8.23
2019-01-19T20:00:28.394Z,7.33
2019-01-19T20:05:36.174Z,8.12
2019-01-19T20:10:43.809Z,8.18
2019-01-19T20:15:51.525Z,8.21
2019-01-19T20:20:59.163Z,7.28
2019-01-19T20:26:06.833Z,8.51
2019-01-19T20:31:14.592Z,10.59
2019-01-19T20:36:22.230Z,7.48
2019-01-19T20:41:29.889Z,7.78
2019-01-19T20:46:37.540Z,8.03
2019-01-19T20:51:45.253Z,7.44
2019-01-19T20:56:52.985Z,11.33
2019-01-19T21:02:00.653Z,7.17
2019-01-19T21:07:08.280Z,11.74
2019-01-19T21:12:15.956Z,7.69
2019-01-19T21:17:23.673Z,10.90
2019-01-19T21:22:31.296Z,8.30
2019-01-19T21:27:38.980Z,7.66
2019-01-19T21:32:46.629Z,8.55
2019-01-19T21:37:54.265Z,8.11
2019-01-19T21:43:01.997Z,7.91
2019-01-19T21:48:09.620Z,7.91
2019-01-19T21:53:17.321Z,7.75
2019-01-19T21:58:24.963Z,7.79
2019-01-19T22:03:32.809Z,8.03
2019-01-19T22:08:40.432Z,7.62
2019-01-19T22:13:48.092Z,12.22
2019-01-19T22:18:55.772Z,7.38
2019-01-19T22:24:03.389Z,8.44
2019-01-19T22:29:11.049Z,8.38
2019-01-19T22:34:18.675Z,8.53
2019-01-19T22:39:26.433Z,8.77
2019-01-19T22:44:34.051Z,8.97
2019-01-19T22:49:41.692Z,10.82
2019-01-19T22:54:49.330Z,9.10
2019-01-19T22:59:57.000Z,10.44
2019-01-19T23:05:04.618Z,7.74
2019-01-19T23:10:12.324Z,8.09
2019-01-19T23:15:19.990Z,12.47
2019-01-19T23:20:27.673Z,12.84
2019-01-19T23:25:35.296Z,8.80
2019-01-19T23:30:43.059Z,8.36
2019-01-19T23:35:50.676Z,9.32
2019-01-19T23:40:58.378Z,8.97
2019-01-19T23:46:06.027Z,8.58
2019-01-19T23:51:13.693Z,8.18
2019-01-19T23:56:21.328Z,9.21
